createdAt,value
2019-05-06T00:01:08.121Z,1.00
2019-05-06T00:03:38.501Z,1.10
2019-05-06T00:06:08.929Z,1.10
2019-05-06T00:08:38.690Z,1.00
2019-05-06T00:11:09.152Z,1.10
2019-05-06T00:13:39.150Z,1.10
2019-05-06T00:16:08.950Z,1.10
2019-05-06T00:18:38.587Z,1.10
2019-05-06T00:21:08.930Z,1.00
2019-05-06T00:23:44.991Z,1.00
2019-05-06T00:26:44.834Z,1.00
2019-05-06T00:29:17.406Z,1.00
2019-05-06T00:31:47.307Z,1.00
2019-05-06T00:34:16.972Z,1.10
2019-05-06T00:36:46.791Z,1.10
2019-05-06T00:39:34.843Z,1.10
2019-05-06T00:42:24.598Z,1.10
2019-05-06T00:44:54.575Z,1.00
2019-05-06T00:47:24.681Z,1.00
2019-05-06T00:49:54.780Z,1.00
2019-05-06T00:52:26.025Z,1.00
2019-05-06T00:54:55.942Z,0.90
2019-05-06T00:57:44.387Z,0.80
2019-05-06T01:00:20.783Z,0.80
2019-05-06T01:02:54.291Z,0.70
2019-05-06T01:05:24.488Z,0.70
2019-05-06T01:07:55.082Z,0.70
2019-05-06T01:10:34.419Z,0.70
2019-05-06T01:13:09.579Z,0.60
2019-05-06T01:15:39.393Z,0.70
2019-05-06T01:18:09.251Z,0.70
2019-05-06T01:20:39.002Z,0.70
2019-05-06T01:23:08.823Z,0.70
2019-05-06T01:25:38.753Z,0.70
2019-05-06T01:28:08.829Z,0.70
2019-05-06T01:30:38.726Z,0.60
2019-05-06T01:33:08.806Z,0.60
2019-05-06T01:35:38.900Z,0.70
2019-05-06T01:38:40.051Z,0.70
2019-05-06T01:41:33.851Z,0.70
2019-05-06T01:44:04.388Z,0.70
2019-05-06T01:46:34.487Z,0.70
2019-05-06T01:49:04.405Z,0.60
2019-05-06T01:51:34.984Z,0.70
2019-05-06T01:54:05.138Z,0.80
2019-05-06T01:56:34.910Z,0.70
2019-05-06T01:59:04.890Z,0.70
2019-05-06T02:01:34.726Z,0.70
2019-05-06T02:04:04.672Z,0.60
2019-05-06T02:06:34.590Z,0.70
2019-05-06T02:09:08.371Z,0.60
2019-05-06T02:11:38.386Z,0.70
2019-05-06T02:14:08.125Z,0.70
2019-05-06T02:16:37.938Z,0.70
2019-05-06T02:19:07.659Z,0.60
2019-05-06T02:22:13.640Z,0.70
2019-05-06T02:24:50.050Z,0.70
2019-05-06T02:27:20.126Z,0.80
2019-05-06T02:29:58.664Z,0.80
2019-05-06T02:32:55.765Z,0.90
2019-05-06T02:36:06.412Z,1.00
2019-05-06T02:38:45.938Z,1.20
2019-05-06T02:41:07.003Z,1.40
2019-05-06T02:43:37.074Z,1.30
2019-05-06T02:46:07.138Z,1.30
2019-05-06T02:49:05.137Z,1.40
2019-05-06T02:51:35.249Z,1.50
2019-05-06T02:54:05.388Z,1.50
2019-05-06T02:56:35.528Z,1.50
2019-05-06T02:59:05.663Z,1.50
2019-05-06T03:01:35.798Z,1.60
2019-05-06T03:04:05.850Z,1.60
2019-05-06T03:06:36.100Z,1.70
2019-05-06T03:09:07.966Z,1.70
2019-05-06T03:11:37.787Z,1.70
2019-05-06T03:14:07.857Z,1.60
2019-05-06T03:16:37.908Z,1.60
2019-05-06T03:19:08.296Z,1.60
2019-05-06T03:22:15.914Z,1.60
2019-05-06T03:24:48.033Z,1.60
2019-05-06T03:27:18.317Z,1.60
2019-05-06T03:29:48.287Z,1.60
2019-05-06T03:32:28.471Z,1.60
2019-05-06T03:35:13.812Z,1.50
2019-05-06T03:37:23.941Z,1.60
2019-05-06T03:39:54.381Z,1.50
2019-05-06T03:42:24.086Z,1.60
2019-05-06T03:44:58.387Z,1.50
2019-05-06T03:47:54.260Z,1.60
2019-05-06T03:50:24.188Z,1.60
2019-05-06T03:52:56.420Z,1.60
2019-05-06T03:55:28.687Z,1.60
2019-05-06T03:57:58.492Z,1.50
2019-05-06T04:00:28.284Z,1.40
2019-05-06T04:02:58.100Z,1.40
2019-05-06T04:05:27.805Z,1.30
2019-05-06T04:07:57.598Z,1.30
2019-05-06T04:10:27.622Z,1.30
2019-05-06T04:13:03.782Z,1.20
2019-05-06T04:15:54.046Z,1.30
2019-05-06T04:18:25.251Z,1.30
2019-05-06T04:21:03.768Z,1.30
2019-05-06T04:24:04.067Z,1.20
2019-05-06T04:27:03.045Z,1.30
2019-05-06T04:29:35.634Z,1.30
2019-05-06T04:32:06.138Z,1.40
2019-05-06T04:34:37.638Z,1.40
2019-05-06T04:37:08.658Z,1.60
2019-05-06T04:39:39.426Z,1.70
2019-05-06T04:42:09.907Z,1.70
2019-05-06T04:44:40.411Z,1.70
2019-05-06T04:47:11.451Z,1.80
2019-05-06T04:49:43.698Z,1.80
2019-05-06T04:52:13.844Z,1.80
2019-05-06T04:54:44.182Z,1.90
2019-05-06T04:57:14.008Z,2.00
2019-05-06T04:59:44.520Z,2.00
2019-05-06T05:02:14.315Z,2.10
2019-05-06T05:04:44.650Z,2.20
2019-05-06T05:07:14.982Z,2.20
2019-05-06T05:09:44.875Z,2.30
2019-05-06T05:12:22.707Z,2.30
2019-05-06T05:15:11.994Z,2.40
2019-05-06T05:17:49.413Z,2.50
2019-05-06T05:20:27.898Z,2.60
2019-05-06T05:22:52.844Z,2.80
2019-05-06T05:25:23.310Z,2.80
2019-05-06T05:27:53.386Z,2.80
2019-05-06T05:30:23.571Z,2.90
2019-05-06T05:32:53.807Z,2.90
2019-05-06T05:35:23.625Z,3.00
2019-05-06T05:37:53.906Z,3.10
2019-05-06T05:40:24.004Z,3.00
2019-05-06T05:43:06.798Z,3.10
2019-05-06T05:45:36.900Z,3.20
2019-05-06T05:48:13.769Z,3.20
2019-05-06T05:50:44.004Z,3.40
2019-05-06T05:53:14.175Z,3.60
2019-05-06T05:55:44.006Z,3.70
2019-05-06T05:58:14.130Z,3.80
2019-05-06T06:00:44.987Z,4.00
2019-05-06T06:03:15.338Z,4.20
2019-05-06T06:05:45.426Z,4.40
2019-05-06T06:08:15.569Z,4.50
2019-05-06T06:10:52.400Z,4.50
2019-05-06T06:13:23.065Z,4.50
2019-05-06T06:16:13.005Z,4.60
2019-05-06T06:19:03.319Z,4.90
2019-05-06T06:21:46.347Z,5.20
2019-05-06T06:24:22.582Z,5.30
2019-05-06T06:26:52.481Z,5.40
2019-05-06T06:29:22.801Z,5.30
2019-05-06T06:32:13.739Z,5.50
2019-05-06T06:35:10.100Z,5.70
2019-05-06T06:37:36.686Z,6.10
2019-05-06T06:40:07.334Z,6.40
2019-05-06T06:42:37.238Z,6.20
2019-05-06T06:45:07.766Z,6.70
2019-05-06T06:47:38.195Z,7.20
2019-05-06T06:50:08.003Z,7.40
2019-05-06T06:52:38.075Z,7.80
2019-05-06T06:55:08.505Z,8.10
2019-05-06T06:58:02.749Z,8.30
2019-05-06T07:00:42.564Z,8.70
2019-05-06T07:03:16.033Z,9.10
2019-05-06T07:05:55.736Z,9.10
2019-05-06T07:08:34.922Z,9.20
2019-05-06T07:10:57.864Z,8.70
2019-05-06T07:13:27.750Z,8.20
2019-05-06T07:15:57.873Z,8.40
2019-05-06T07:18:27.897Z,8.40
2019-05-06T07:21:22.362Z,8.20
2019-05-06T07:23:53.022Z,8.40
2019-05-06T07:26:25.930Z,8.60
2019-05-06T07:28:56.134Z,8.50
2019-05-06T07:31:26.932Z,8.50
2019-05-06T07:33:56.986Z,8.80
2019-05-06T07:36:27.404Z,9.50
2019-05-06T07:38:57.551Z,10.70
2019-05-06T07:41:36.290Z,11.30
2019-05-06T07:44:23.647Z,12.70
2019-05-06T07:47:27.983Z,13.30
2019-05-06T07:49:57.738Z,13.60
2019-05-06T07:52:27.938Z,13.10
2019-05-06T07:54:57.846Z,13.00
2019-05-06T07:57:28.314Z,13.70
2019-05-06T07:59:58.182Z,14.60
2019-05-06T08:02:27.962Z,15.40
2019-05-06T08:04:57.706Z,14.60
2019-05-06T08:07:27.548Z,14.70
2019-05-06T08:09:57.350Z,14.70
2019-05-06T08:12:27.186Z,15.10
2019-05-06T08:14:56.998Z,16.90
2019-05-06T08:17:34.215Z,16.30
2019-05-06T08:20:04.235Z,14.80
2019-05-06T08:22:57.864Z,13.20
2019-05-06T08:25:36.753Z,13.00
2019-05-06T08:28:06.534Z,13.30
2019-05-06T08:30:36.446Z,14.30
2019-05-06T08:33:06.451Z,15.30
2019-05-06T08:35:36.318Z,18.30
2019-05-06T08:38:06.142Z,19.60
2019-05-06T08:40:35.950Z,20.10
2019-05-06T08:43:05.806Z,20.20
2019-05-06T08:45:35.664Z,21.70
2019-05-06T08:48:05.508Z,20.10
2019-05-06T08:50:44.069Z,18.00
2019-05-06T08:53:32.908Z,18.70
2019-05-06T08:56:03.915Z,20.80
2019-05-06T08:58:47.959Z,22.50
2019-05-06T09:01:48.516Z,21.70
2019-05-06T09:04:18.849Z,21.50
2019-05-06T09:06:49.170Z,21.60
2019-05-06T09:09:19.194Z,22.40
2019-05-06T09:11:49.265Z,22.50
2019-05-06T09:14:19.362Z,22.50
2019-05-06T09:16:53.071Z,23.00
2019-05-06T09:19:23.374Z,23.70
2019-05-06T09:21:53.986Z,23.40
2019-05-06T09:24:23.799Z,22.10
2019-05-06T09:26:59.449Z,20.60
2019-05-06T09:29:42.959Z,21.20
2019-05-06T09:32:17.191Z,21.90
2019-05-06T09:34:52.703Z,22.20
2019-05-06T09:37:24.025Z,19.60
2019-05-06T09:39:54.412Z,17.50
2019-05-06T09:42:25.073Z,16.30
2019-05-06T09:44:54.906Z,15.80
2019-05-06T09:47:42.873Z,15.00
2019-05-06T09:50:31.878Z,14.90
2019-05-06T09:53:02.461Z,15.90
2019-05-06T09:55:55.565Z,16.20
2019-05-06T09:58:26.171Z,17.60
2019-05-06T10:00:58.583Z,20.40
2019-05-06T10:03:32.272Z,22.60
2019-05-06T10:06:02.830Z,22.50
2019-05-06T10:08:32.731Z,19.60
2019-05-06T10:11:03.331Z,17.60
2019-05-06T10:13:33.316Z,16.50
2019-05-06T10:16:03.887Z,16.10
2019-05-06T10:18:34.124Z,15.40
2019-05-06T10:21:04.323Z,15.10
2019-05-06T10:23:34.337Z,14.60
2019-05-06T10:26:04.857Z,13.90
2019-05-06T10:28:45.921Z,13.80
2019-05-06T10:31:17.759Z,13.50
2019-05-06T10:34:05.539Z,13.90
2019-05-06T10:36:42.782Z,14.10
2019-05-06T10:39:14.937Z,14.80
2019-05-06T10:41:48.115Z,15.00
2019-05-06T10:44:32.987Z,14.80
2019-05-06T10:47:03.080Z,14.80
2019-05-06T10:49:33.676Z,14.40
2019-05-06T10:52:12.564Z,14.70
2019-05-06T10:54:42.391Z,14.30
2019-05-06T10:57:24.445Z,14.40
2019-05-06T10:59:54.602Z,14.30
2019-05-06T11:02:44.147Z,14.30
2019-05-06T11:05:14.705Z,14.40
2019-05-06T11:07:45.122Z,15.00
2019-05-06T11:10:23.900Z,15.80
2019-05-06T11:12:47.146Z,16.90
2019-05-06T11:15:25.279Z,17.40
2019-05-06T11:17:55.573Z,17.10
2019-05-06T11:20:25.686Z,17.90
2019-05-06T11:22:55.859Z,17.50
2019-05-06T11:25:25.689Z,16.60
2019-05-06T11:27:56.109Z,16.10
2019-05-06T11:30:44.937Z,16.00
2019-05-06T11:33:48.810Z,15.40
2019-05-06T11:36:24.274Z,14.70
2019-05-06T11:38:54.078Z,14.00
2019-05-06T11:41:24.502Z,13.50
2019-05-06T11:43:54.303Z,13.20
2019-05-06T11:46:24.178Z,13.00
2019-05-06T11:48:53.849Z,13.00
2019-05-06T11:51:25.669Z,13.20
2019-05-06T11:53:55.440Z,13.20
2019-05-06T11:56:25.245Z,13.10
2019-05-06T11:58:55.759Z,13.00
2019-05-06T12:01:32.880Z,13.00
2019-05-06T12:04:03.160Z,13.30
2019-05-06T12:06:33.313Z,13.60
2019-05-06T12:09:06.502Z,13.30
2019-05-06T12:11:34.807Z,13.70
2019-05-06T12:14:04.658Z,13.90
2019-05-06T12:16:34.623Z,14.40
2019-05-06T12:19:04.746Z,14.50
2019-05-06T12:21:34.594Z,14.20
2019-05-06T12:24:04.527Z,14.60
2019-05-06T12:26:34.923Z,14.70
2019-05-06T12:29:04.778Z,14.60
2019-05-06T12:31:34.582Z,14.90
2019-05-06T12:34:04.405Z,15.00
2019-05-06T12:36:34.238Z,15.30
2019-05-06T12:39:25.836Z,15.80
2019-05-06T12:42:14.739Z,15.70
2019-05-06T12:45:16.110Z,15.10
2019-05-06T12:47:58.217Z,15.50
2019-05-06T12:50:28.055Z,15.30
2019-05-06T12:52:58.090Z,16.10
2019-05-06T12:55:28.518Z,16.30
2019-05-06T12:58:07.315Z,17.00
2019-05-06T13:00:37.358Z,17.10
2019-05-06T13:03:08.040Z,17.30
2019-05-06T13:05:38.402Z,17.30
2019-05-06T13:08:08.347Z,17.30
2019-05-06T13:10:38.259Z,17.20
2019-05-06T13:13:08.947Z,16.20
2019-05-06T13:15:39.956Z,14.80
2019-05-06T13:18:10.359Z,14.20
2019-05-06T13:20:40.221Z,13.80
2019-05-06T13:23:24.576Z,13.40
2019-05-06T13:25:49.338Z,13.30
2019-05-06T13:28:22.431Z,13.30
2019-05-06T13:30:53.264Z,13.40
2019-05-06T13:33:39.689Z,13.50
2019-05-06T13:36:12.960Z,13.50
2019-05-06T13:38:42.812Z,13.40
2019-05-06T13:41:12.942Z,13.60
2019-05-06T13:43:47.023Z,13.80
2019-05-06T13:46:23.649Z,13.60
2019-05-06T13:49:13.318Z,13.40
2019-05-06T13:52:08.888Z,13.00
2019-05-06T13:54:41.959Z,13.40
2019-05-06T13:57:12.582Z,13.60
2019-05-06T13:59:44.155Z,13.70
2019-05-06T14:02:53.090Z,14.30
2019-05-06T14:05:42.911Z,14.70
2019-05-06T14:08:13.254Z,15.00
2019-05-06T14:10:43.318Z,15.60
2019-05-06T14:13:13.876Z,16.20
2019-05-06T14:15:44.230Z,16.50
2019-05-06T14:18:14.931Z,17.10
2019-05-06T14:20:45.215Z,17.50
2019-05-06T14:23:15.584Z,17.50
2019-05-06T14:26:04.306Z,17.20
2019-05-06T14:28:53.553Z,17.00
2019-05-06T14:31:26.895Z,16.40
2019-05-06T14:33:56.921Z,15.80
2019-05-06T14:36:27.676Z,15.70
2019-05-06T14:38:58.355Z,15.30
2019-05-06T14:41:29.303Z,14.80
2019-05-06T14:43:59.426Z,14.50
2019-05-06T14:46:51.096Z,14.80
2019-05-06T14:49:22.487Z,15.60
2019-05-06T14:51:53.692Z,16.60
2019-05-06T14:54:24.174Z,17.20
2019-05-06T14:57:07.259Z,17.30
2019-05-06T14:59:37.834Z,17.60
2019-05-06T15:02:08.377Z,18.30
2019-05-06T15:04:39.682Z,17.80
2019-05-06T15:07:09.534Z,18.10
2019-05-06T15:09:53.705Z,17.70
2019-05-06T15:12:13.314Z,17.40
2019-05-06T15:14:43.595Z,16.40
2019-05-06T15:17:14.449Z,15.60
2019-05-06T15:19:45.074Z,15.30
2019-05-06T15:22:15.363Z,15.40
2019-05-06T15:24:45.921Z,15.10
2019-05-06T15:27:16.722Z,14.80
2019-05-06T15:29:53.001Z,14.80
2019-05-06T15:32:38.737Z,14.80
2019-05-06T15:35:22.319Z,14.20
2019-05-06T15:37:55.500Z,14.50
2019-05-06T15:40:36.759Z,14.90
2019-05-06T15:43:06.963Z,14.40
2019-05-06T15:45:37.337Z,13.90
2019-05-06T15:48:07.791Z,13.00
2019-05-06T15:50:38.340Z,13.30
2019-05-06T15:53:08.881Z,13.70
2019-05-06T15:55:39.448Z,12.70
2019-05-06T15:58:09.434Z,12.50
2019-05-06T16:00:48.447Z,12.60
2019-05-06T16:03:18.599Z,12.70
2019-05-06T16:05:48.653Z,12.90
2019-05-06T16:08:18.981Z,13.20
2019-05-06T16:10:55.648Z,13.60
2019-05-06T16:13:23.127Z,13.90
2019-05-06T16:15:53.471Z,14.10
2019-05-06T16:18:23.880Z,14.20
2019-05-06T16:20:57.175Z,14.00
2019-05-06T16:23:48.627Z,13.90
2019-05-06T16:29:09.646Z,12.90
2019-05-06T16:31:42.157Z,12.70
2019-05-06T16:34:14.471Z,12.60
2019-05-06T16:36:44.052Z,12.40
2019-05-06T16:39:13.954Z,12.50
2019-05-06T16:41:44.723Z,12.40
2019-05-06T16:44:14.666Z,12.10
2019-05-06T16:46:44.511Z,12.10
2019-05-06T16:49:14.340Z,12.10
2019-05-06T16:51:44.356Z,11.90
2019-05-06T16:54:14.160Z,11.80
2019-05-06T16:56:52.441Z,11.90
2019-05-06T16:59:23.669Z,11.80
2019-05-06T17:01:53.270Z,11.90
2019-05-06T17:04:46.346Z,11.90
2019-05-06T17:07:16.046Z,11.80
2019-05-06T17:09:45.879Z,11.70
2019-05-06T17:12:15.601Z,11.70
2019-05-06T17:14:45.346Z,11.50
2019-05-06T17:17:15.126Z,11.50
2019-05-06T17:19:44.968Z,11.50
2019-05-06T17:22:14.858Z,11.50
2019-05-06T17:24:44.595Z,11.50
2019-05-06T17:27:14.344Z,11.50
2019-05-06T17:29:50.922Z,11.40
2019-05-06T17:32:42.033Z,11.40
2019-05-06T17:35:12.524Z,11.30
2019-05-06T17:37:52.659Z,11.30
2019-05-06T17:40:23.432Z,11.20
2019-05-06T17:42:53.462Z,11.20
2019-05-06T17:46:02.368Z,11.00
2019-05-06T17:48:48.633Z,10.90
2019-05-06T17:51:26.898Z,10.80
2019-05-06T17:53:58.272Z,10.70
2019-05-06T17:56:27.926Z,10.70
2019-05-06T17:58:57.636Z,10.60
2019-05-06T18:01:33.411Z,10.50
2019-05-06T18:04:03.373Z,10.40
2019-05-06T18:06:33.203Z,10.40
2019-05-06T18:09:03.929Z,10.30
2019-05-06T18:11:33.497Z,10.30
2019-05-06T18:14:04.231Z,10.30
2019-05-06T18:16:34.469Z,10.20
2019-05-06T18:19:04.861Z,10.10
2019-05-06T18:21:34.880Z,10.10
2019-05-06T18:24:04.992Z,10.00
2019-05-06T18:26:35.540Z,9.90
2019-05-06T18:29:06.237Z,9.90
2019-05-06T18:31:36.545Z,9.80
2019-05-06T18:34:06.679Z,9.70
2019-05-06T18:36:36.942Z,9.70
2019-05-06T18:39:07.543Z,9.70
2019-05-06T18:41:37.968Z,9.60
2019-05-06T18:44:07.946Z,9.60
2019-05-06T18:46:38.099Z,9.50
2019-05-06T18:49:07.921Z,9.50
2019-05-06T18:51:37.719Z,9.50
2019-05-06T18:54:07.514Z,9.40
2019-05-06T18:56:37.259Z,9.40
2019-05-06T18:59:07.377Z,9.30
2019-05-06T19:01:37.098Z,9.30
2019-05-06T19:04:14.895Z,9.20
2019-05-06T19:06:45.362Z,9.10
2019-05-06T19:09:32.681Z,9.00
2019-05-06T19:12:03.531Z,9.00
2019-05-06T19:14:33.949Z,8.90
2019-05-06T19:17:04.347Z,8.90
2019-05-06T19:19:35.084Z,8.80
2019-05-06T19:22:05.173Z,8.80
2019-05-06T19:24:35.774Z,8.70
2019-05-06T19:27:05.886Z,8.80
2019-05-06T19:29:36.130Z,8.80
2019-05-06T19:32:06.209Z,8.90
2019-05-06T19:34:36.539Z,9.00
2019-05-06T19:37:06.595Z,9.00
2019-05-06T19:39:36.970Z,8.90
2019-05-06T19:42:07.084Z,8.90
2019-05-06T19:44:37.073Z,8.90
2019-05-06T19:47:07.334Z,8.80
2019-05-06T19:49:37.774Z,8.70
2019-05-06T19:52:08.107Z,8.70
2019-05-06T19:54:38.442Z,8.60
2019-05-06T19:57:12.165Z,8.60
2019-05-06T19:59:42.447Z,8.60
2019-05-06T20:02:12.979Z,8.60
2019-05-06T20:04:44.754Z,8.50
2019-05-06T20:07:37.786Z,8.40
2019-05-06T20:10:27.051Z,8.30
2019-05-06T20:13:02.660Z,8.20
2019-05-06T20:15:39.221Z,8.10
2019-05-06T20:18:10.493Z,8.10
2019-05-06T20:20:42.266Z,8.10
2019-05-06T20:23:12.735Z,8.10
2019-05-06T20:25:44.859Z,8.10
2019-05-06T20:28:15.152Z,8.10
2019-05-06T20:30:45.389Z,8.10
2019-05-06T20:33:15.128Z,8.10
2019-05-06T20:35:47.571Z,8.10
2019-05-06T20:38:36.575Z,8.00
2019-05-06T20:41:06.390Z,8.00
2019-05-06T20:43:36.162Z,8.00
2019-05-06T20:46:05.981Z,8.00
2019-05-06T20:48:35.711Z,7.90
2019-05-06T20:51:05.569Z,7.90
2019-05-06T20:53:35.625Z,7.90
2019-05-06T20:56:05.930Z,7.90
2019-05-06T20:58:35.714Z,7.90
2019-05-06T21:01:05.518Z,7.80
2019-05-06T21:03:35.314Z,7.80
2019-05-06T21:06:07.106Z,7.80
2019-05-06T21:08:37.794Z,7.80
2019-05-06T21:11:22.016Z,7.80
2019-05-06T21:13:40.401Z,7.70
2019-05-06T21:16:12.901Z,7.80
2019-05-06T21:18:42.507Z,7.70
2019-05-06T21:21:13.566Z,7.70
2019-05-06T21:23:43.591Z,7.60
2019-05-06T21:26:13.713Z,7.60
2019-05-06T21:28:46.316Z,7.60
2019-05-06T21:31:15.129Z,7.60
2019-05-06T21:33:45.132Z,7.60
2019-05-06T21:36:14.948Z,7.60
2019-05-06T21:38:44.858Z,7.50
2019-05-06T21:41:17.879Z,7.50
2019-05-06T21:43:50.179Z,7.40
2019-05-06T21:46:19.660Z,7.40
2019-05-06T21:48:49.310Z,7.40
2019-05-06T21:51:19.094Z,7.40
2019-05-06T21:53:48.829Z,7.40
2019-05-06T21:56:18.552Z,7.40
2019-05-06T21:58:48.340Z,7.30
2019-05-06T22:01:18.431Z,7.30
2019-05-06T22:03:48.155Z,7.30
2019-05-06T22:06:18.039Z,7.30
2019-05-06T22:08:47.821Z,7.30
2019-05-06T22:11:17.651Z,7.20
2019-05-06T22:14:00.673Z,7.20
2019-05-06T22:16:18.806Z,7.20
2019-05-06T22:18:48.667Z,7.20
2019-05-06T22:21:24.378Z,7.20
2019-05-06T22:24:04.804Z,7.20
2019-05-06T22:26:35.273Z,7.20
2019-05-06T22:29:05.574Z,7.20
2019-05-06T22:31:35.814Z,7.10
2019-05-06T22:34:05.859Z,7.00
2019-05-06T22:36:36.186Z,7.00
2019-05-06T22:39:06.689Z,7.00
2019-05-06T22:41:36.749Z,7.00
2019-05-06T22:44:13.789Z,7.00
2019-05-06T22:46:38.762Z,7.00
2019-05-06T22:49:08.403Z,7.00
2019-05-06T22:51:38.286Z,6.90
2019-05-06T22:54:08.258Z,6.90
2019-05-06T22:56:38.171Z,6.80
2019-05-06T22:59:07.876Z,6.80
2019-05-06T23:02:09.079Z,6.80
2019-05-06T23:04:39.786Z,6.70
2019-05-06T23:07:10.167Z,6.70
2019-05-06T23:09:42.400Z,6.70
2019-05-06T23:12:14.286Z,6.70
2019-05-06T23:14:44.285Z,6.70
2019-05-06T23:17:14.007Z,6.70
2019-05-06T23:19:44.648Z,6.60
2019-05-06T23:22:14.478Z,6.60
2019-05-06T23:24:44.268Z,6.50
2019-05-06T23:27:13.993Z,6.40
2019-05-06T23:29:46.121Z,6.40
2019-05-06T23:32:15.857Z,6.30
2019-05-06T23:34:45.596Z,6.30
2019-05-06T23:37:23.529Z,6.20
2019-05-06T23:40:36.038Z,6.20
2019-05-06T23:43:42.711Z,6.10
2019-05-06T23:46:48.922Z,6.20
2019-05-06T23:49:56.138Z,6.10
2019-05-06T23:53:02.963Z,6.00
2019-05-06T23:56:08.962Z,6.00
2019-05-06T23:58:38.647Z,5.80
